Time;durP1;ratioP1;P1;durP2;ratioP2;P2;SDS_P1;SDS_P2;PMS_P1;PMS_P2;Temp;Humidity;BMP_temperature;BMP_pressure;BME280_temperature;BME280_humidity;BME280_pressure;Samples;Min_cycle;Max_cycle;Signal;HPM_P1;HPM_P2
2023/01/03 00:01:20;;;;;;;13.50;4.75;;;3.70;99.90;;;;;;5030214;28;20123;-63
2023/01/03 00:03:46;;;;;;;9.20;4.60;;;3.60;99.90;;;;;;5047488;28;20049;-63
2023/01/03 00:06:45;;;;;;;12.40;4.03;;;3.60;99.90;;;;;;5028354;28;20064;-63
2023/01/03 00:09:17;;;;;;;11.55;4.13;;;3.60;99.90;;;;;;5041111;28;20189;-62
2023/01/03 00:14:34;;;;;;;12.35;4.10;;;3.50;99.90;;;;;;5036067;28;20152;-63
2023/01/03 00:17:01;;;;;;;8.93;4.05;;;3.60;99.90;;;;;;5039922;28;20041;-63
2023/01/03 00:19:31;;;;;;;9.00;3.60;;;3.60;99.90;;;;;;5045150;28;20106;-62
2023/01/03 00:21:57;;;;;;;13.60;4.45;;;3.60;99.90;;;;;;5047934;28;20045;-63
2023/01/03 00:24:23;;;;;;;8.55;3.67;;;3.60;99.90;;;;;;5044934;28;20048;-62
2023/01/03 00:26:49;;;;;;;9.48;3.55;;;3.70;99.90;;;;;;5043598;28;20059;-63
2023/01/03 00:29:15;;;;;;;8.98;3.15;;;3.70;99.90;;;;;;5045083;28;20045;-62
2023/01/03 00:31:42;;;;;;;7.20;3.30;;;3.70;99.90;;;;;;5048798;28;20048;-62
2023/01/03 00:34:08;;;;;;;7.03;3.13;;;3.70;99.90;;;;;;5049129;28;20072;-63
2023/01/03 00:36:35;;;;;;;9.55;3.22;;;3.70;99.90;;;;;;5031278;28;20119;-63
2023/01/03 00:39:01;;;;;;;8.77;3.38;;;3.80;99.90;;;;;;5041582;28;20037;-63
2023/01/03 00:41:27;;;;;;;9.00;3.15;;;3.80;99.90;;;;;;5039721;28;20045;-63
2023/01/03 00:43:53;;;;;;;8.65;3.30;;;3.80;99.90;;;;;;5041010;28;20048;-62
2023/01/03 00:46:20;;;;;;;11.48;3.35;;;3.80;99.90;;;;;;5043670;28;22108;-62
2023/01/03 00:48:46;;;;;;;7.47;3.05;;;3.80;99.90;;;;;;5044353;28;20060;-63
2023/01/03 00:51:19;;;;;;;11.27;3.40;;;3.90;99.90;;;;;;5042820;28;20094;-62
2023/01/03 00:53:46;;;;;;;8.35;2.67;;;3.90;99.90;;;;;;5042007;28;20045;-63
2023/01/03 00:56:15;;;;;;;8.45;3.00;;;3.90;99.90;;;;;;5032733;28;20587;-63
2023/01/03 00:58:41;;;;;;;7.32;2.67;;;3.90;99.90;;;;;;5041920;28;20136;-63
2023/01/03 01:01:14;;;;;;;9.98;2.63;;;3.90;99.90;;;;;;5040539;28;20106;-63
2023/01/03 01:03:43;;;;;;;7.82;2.50;;;3.90;99.90;;;;;;5045222;28;20060;-62
2023/01/03 01:06:13;;;;;;;7.75;2.45;;;3.90;99.90;;;;;;5038632;28;20044;-63
2023/01/03 01:08:39;;;;;;;6.63;2.53;;;4.00;99.90;;;;;;5046622;28;20045;-63
2023/01/03 01:11:05;;;;;;;7.45;2.45;;;3.90;99.90;;;;;;5040238;28;20095;-63
2023/01/03 01:13:32;;;;;;;11.50;2.72;;;3.90;99.90;;;;;;5046207;28;20989;-63
2023/01/03 01:16:13;;;;;;;12.43;2.40;;;3.90;99.90;;;;;;5038471;28;20110;-63
2023/01/03 01:18:41;;;;;;;8.75;2.50;;;3.90;99.90;;;;;;5043763;28;20136;-63
2023/01/03 01:21:09;;;;;;;6.32;2.63;;;4.00;99.90;;;;;;5041275;28;20057;-63
2023/01/03 01:23:36;;;;;;;9.38;3.28;;;4.00;99.90;;;;;;5041084;28;20503;-63
2023/01/03 01:26:03;;;;;;;8.43;2.70;;;4.00;99.90;;;;;;5043163;28;20119;-62
2023/01/03 01:28:30;;;;;;;6.30;2.58;;;4.00;99.90;;;;;;5039768;28;20135;-62
2023/01/03 01:31:00;;;;;;;7.72;2.53;;;4.00;99.90;;;;;;5040642;28;20166;-63
2023/01/03 01:33:26;;;;;;;9.20;2.80;;;4.00;99.90;;;;;;5040828;28;20151;-63
2023/01/03 01:35:52;;;;;;;9.00;3.70;;;4.00;99.90;;;;;;5041259;28;20697;-63
2023/01/03 01:38:18;;;;;;;7.88;2.45;;;4.00;99.90;;;;;;5039455;28;20053;-63
2023/01/03 01:40:44;;;;;;;6.15;3.13;;;4.10;99.90;;;;;;5024477;28;20053;-63
2023/01/03 01:46:22;;;;;;;11.13;3.53;;;4.10;99.90;;;;;;5041649;28;20052;-62
2023/01/03 01:49:04;;;;;;;9.30;3.33;;;4.10;99.90;;;;;;5040025;28;20087;-63
2023/01/03 01:51:32;;;;;;;7.85;2.78;;;4.10;99.90;;;;;;5038514;28;20065;-62
2023/01/03 01:54:01;;;;;;;10.45;2.95;;;4.10;99.90;;;;;;5041524;28;20048;-63
2023/01/03 01:56:38;;;;;;;10.07;2.80;;;4.10;99.90;;;;;;5042984;28;20462;-63
2023/01/03 01:59:04;;;;;;;10.27;2.83;;;4.20;99.90;;;;;;5040782;28;20044;-63
2023/01/03 02:01:30;;;;;;;8.13;2.65;;;4.10;99.90;;;;;;5056880;28;20041;-63
2023/01/03 02:04:00;;;;;;;10.95;2.88;;;4.10;99.90;;;;;;5044899;28;20048;-63
2023/01/03 02:06:29;;;;;;;15.73;3.58;;;4.20;99.90;;;;;;5040591;28;20128;-62
2023/01/03 02:08:55;;;;;;;11.25;3.10;;;4.20;99.90;;;;;;5040889;28;20044;-63
2023/01/03 02:11:27;;;;;;;6.63;2.70;;;4.20;99.90;;;;;;5041823;28;20052;-63
2023/01/03 02:14:11;;;;;;;8.48;2.95;;;4.20;99.90;;;;;;5038288;28;20053;-63
2023/01/03 02:17:20;;;;;;;9.98;3.47;;;4.30;99.90;;;;;;5041641;28;20048;-63
2023/01/03 02:20:07;;;;;;;10.90;2.97;;;4.30;99.90;;;;;;5037188;28;20075;-63
2023/01/03 02:23:15;;;;;;;11.30;3.20;;;4.30;99.90;;;;;;5043348;28;20052;-62
2023/01/03 02:25:56;;;;;;;10.38;2.95;;;4.30;99.90;;;;;;5043365;28;20116;-63
2023/01/03 02:28:44;;;;;;;8.40;3.10;;;4.40;99.90;;;;;;5038733;28;20052;-63
2023/01/03 02:31:24;;;;;;;9.40;2.72;;;4.30;99.90;;;;;;5036889;28;20712;-63
2023/01/03 02:34:22;;;;;;;9.65;3.55;;;4.30;99.90;;;;;;5043616;28;20970;-63
2023/01/03 02:37:12;;;;;;;16.55;4.03;;;4.30;99.90;;;;;;5041485;28;20071;-63
2023/01/03 02:39:49;;;;;;;9.77;4.00;;;4.30;99.90;;;;;;5039203;28;20044;-63
2023/01/03 02:45:19;;;;;;;13.88;4.35;;;4.30;99.90;;;;;;5039065;28;20041;-63
2023/01/03 02:48:00;;;;;;;8.98;4.15;;;4.30;99.90;;;;;;5039658;28;20082;-63
2023/01/03 02:50:30;;;;;;;11.70;4.43;;;4.20;99.90;;;;;;5037551;28;20088;-63
2023/01/03 02:53:04;;;;;;;8.60;4.13;;;4.20;99.90;;;;;;5041973;28;20049;-63
2023/01/03 02:55:31;;;;;;;8.50;3.42;;;4.20;99.90;;;;;;5036608;28;20064;-62
2023/01/03 02:58:08;;;;;;;9.73;3.85;;;4.10;99.90;;;;;;5039821;28;20048;-62
2023/01/03 03:00:40;;;;;;;9.05;3.80;;;4.10;99.90;;;;;;5040400;28;20052;-63
2023/01/03 03:03:13;;;;;;;12.27;3.60;;;4.00;99.90;;;;;;5040157;28;20095;-63
2023/01/03 03:05:46;;;;;;;10.75;3.63;;;4.00;99.90;;;;;;5041901;28;20051;-63
2023/01/03 03:08:12;;;;;;;8.32;3.47;;;3.80;99.90;;;;;;5048312;28;20086;-63
2023/01/03 03:13:30;;;;;;;9.52;3.28;;;3.70;99.90;;;;;;5041007;28;20144;-63
2023/01/03 03:16:15;;;;;;;9.48;3.22;;;3.70;99.90;;;;;;5046287;28;20116;-62
2023/01/03 03:18:43;;;;;;;10.38;3.70;;;3.60;99.90;;;;;;5044277;28;20040;-63
2023/01/03 03:28:33;;;;;;;10.35;3.88;;;3.40;99.90;;;;;;5032807;28;20380;-63
2023/01/03 03:29:56;;;;;;;10.15;4.38;;;3.40;99.90;;;;;;5041943;28;20049;-63
2023/01/03 03:32:25;;;;;;;6.47;3.38;;;3.30;99.90;;;;;;5027488;28;20044;-62
2023/01/03 03:34:54;;;;;;;8.35;3.47;;;3.30;99.90;;;;;;5043308;28;20051;-63
2023/01/03 03:37:23;;;;;;;13.52;4.70;;;3.30;99.90;;;;;;5042596;28;20049;-63
2023/01/03 03:46:02;;;;;;;9.80;4.45;;;3.20;99.90;;;;;;5054544;28;20492;-63
2023/01/03 03:49:36;;;;;;;15.57;4.10;;;3.10;99.90;;;;;;5049940;28;20052;-63
2023/01/03 03:51:20;;;;;;;9.43;4.63;;;3.10;99.90;;;;;;5047305;28;20094;-61
2023/01/03 03:53:48;;;;;;;11.75;4.18;;;3.10;99.90;;;;;;5053572;28;20051;-63
2023/01/03 03:56:21;;;;;;;9.57;4.40;;;3.00;99.90;;;;;;5048686;28;20136;-63
2023/01/03 03:58:52;;;;;;;8.00;3.92;;;3.00;99.90;;;;;;5049606;28;20138;-63
2023/01/03 04:01:21;;;;;;;11.63;4.50;;;3.00;99.90;;;;;;5041141;28;20048;-63
2023/01/03 04:03:50;;;;;;;12.80;4.20;;;2.90;99.90;;;;;;5045386;28;20950;-63
2023/01/03 04:06:39;;;;;;;10.63;3.90;;;2.90;99.90;;;;;;5045754;28;20120;-63
2023/01/03 04:09:05;;;;;;;6.80;3.70;;;2.90;99.90;;;;;;5038391;28;20047;-63
2023/01/03 04:11:31;;;;;;;10.73;4.25;;;2.90;99.90;;;;;;5044578;28;20056;-63
2023/01/03 04:13:57;;;;;;;6.72;3.80;;;2.90;99.90;;;;;;5043198;28;20385;-63
2023/01/03 04:16:22;;;;;;;8.35;3.70;;;2.90;99.90;;;;;;5038945;28;20061;-63
2023/01/03 04:18:48;;;;;;;15.18;3.90;;;2.80;99.90;;;;;;5017349;28;20041;-63
2023/01/03 04:21:14;;;;;;;6.88;3.80;;;2.90;99.90;;;;;;5043479;28;20129;-63
2023/01/03 04:23:40;;;;;;;7.45;4.03;;;2.80;99.90;;;;;;5047350;28;20146;-63
2023/01/03 04:26:05;;;;;;;9.00;4.57;;;2.80;99.90;;;;;;5040266;28;20643;-63
2023/01/03 04:28:31;;;;;;;8.52;3.63;;;2.80;99.90;;;;;;5041517;28;20206;-63
2023/01/03 04:30:57;;;;;;;13.43;4.30;;;2.70;99.90;;;;;;5041923;28;20060;-63
2023/01/03 04:33:23;;;;;;;8.40;4.22;;;2.70;99.90;;;;;;5045901;28;20064;-63
2023/01/03 04:35:49;;;;;;;7.68;3.90;;;2.70;99.90;;;;;;5044478;28;20052;-63
2023/01/03 04:38:14;;;;;;;9.57;4.50;;;2.70;99.90;;;;;;5044591;28;20083;-63
2023/01/03 04:40:40;;;;;;;10.65;4.75;;;2.70;99.90;;;;;;5041671;28;20060;-63
2023/01/03 04:45:51;;;;;;;7.50;4.20;;;2.70;99.90;;;;;;5032283;28;20506;-63
2023/01/03 04:48:17;;;;;;;10.48;4.88;;;2.80;99.90;;;;;;5043964;28;20048;-62
2023/01/03 04:50:51;;;;;;;11.45;4.70;;;2.80;99.90;;;;;;5039654;28;20056;-63
2023/01/03 04:53:17;;;;;;;11.43;5.35;;;2.80;99.90;;;;;;5043560;28;20049;-63
2023/01/03 04:55:50;;;;;;;9.82;5.45;;;2.80;99.90;;;;;;5038638;28;20102;-63
2023/01/03 04:58:17;;;;;;;13.05;5.38;;;2.80;99.90;;;;;;5023103;28;20053;-63
2023/01/03 05:00:43;;;;;;;12.35;6.07;;;2.80;99.90;;;;;;5037336;28;20049;-63
2023/01/03 05:03:09;;;;;;;16.50;6.35;;;2.80;99.90;;;;;;5040967;28;20368;-62
2023/01/03 05:05:38;;;;;;;10.75;6.68;;;2.90;99.90;;;;;;5042835;28;20063;-63
2023/01/03 05:08:06;;;;;;;11.75;7.07;;;2.90;99.90;;;;;;5042171;28;20056;-63
2023/01/03 05:10:32;;;;;;;16.60;7.63;;;2.90;99.90;;;;;;5039259;28;20370;-63
2023/01/03 05:12:59;;;;;;;13.15;7.80;;;2.90;99.90;;;;;;5040187;28;26396;-63
2023/01/03 05:15:29;;;;;;;16.27;8.48;;;2.90;99.90;;;;;;5047813;28;20155;-63
2023/01/03 05:17:56;;;;;;;19.65;8.27;;;2.90;99.90;;;;;;5042815;28;20049;-63
2023/01/03 05:25:56;;;;;;;18.30;9.30;;;2.90;99.90;;;;;;5041236;28;20055;-63
2023/01/03 05:28:23;;;;;;;16.58;9.57;;;2.90;99.90;;;;;;5031501;28;20068;-63
2023/01/03 05:30:49;;;;;;;25.02;11.10;;;2.90;99.90;;;;;;5042253;28;20119;-63
2023/01/03 05:33:15;;;;;;;19.27;10.60;;;2.90;99.90;;;;;;5043436;28;20052;-61
2023/01/03 05:35:43;;;;;;;19.70;10.70;;;2.90;99.90;;;;;;5040137;28;20068;-63
2023/01/03 05:38:09;;;;;;;20.15;10.35;;;3.00;99.90;;;;;;5043975;28;20119;-63
2023/01/03 05:40:35;;;;;;;22.77;11.30;;;3.00;99.90;;;;;;5043651;28;20070;-63
2023/01/03 05:43:01;;;;;;;20.08;11.35;;;3.00;99.90;;;;;;5041088;28;20491;-63
2023/01/03 05:45:27;;;;;;;18.38;10.65;;;3.10;99.90;;;;;;5039833;28;20114;-63
2023/01/03 05:47:55;;;;;;;19.15;10.50;;;3.10;99.90;;;;;;5037730;28;20044;-63
2023/01/03 05:50:21;;;;;;;21.65;11.48;;;3.10;99.90;;;;;;5038233;28;20044;-63
2023/01/03 05:52:47;;;;;;;26.70;12.65;;;3.10;99.90;;;;;;5040626;28;20056;-63
2023/01/03 05:55:14;;;;;;;23.50;11.80;;;3.10;99.90;;;;;;5038434;28;21509;-63
2023/01/03 05:57:39;;;;;;;22.73;11.68;;;3.10;99.90;;;;;;5041991;28;20117;-62
2023/01/03 06:00:06;;;;;;;25.60;12.18;;;3.10;99.90;;;;;;5044152;28;20052;-63
2023/01/03 06:02:32;;;;;;;21.45;11.63;;;3.10;99.90;;;;;;5042890;28;20048;-63
2023/01/03 06:04:57;;;;;;;22.90;11.95;;;3.10;99.90;;;;;;5041349;28;20040;-63
2023/01/03 06:07:23;;;;;;;22.63;12.73;;;3.10;99.90;;;;;;5042774;28;20044;-63
2023/01/03 06:09:49;;;;;;;20.58;12.23;;;3.10;99.90;;;;;;5041469;28;20048;-63
2023/01/03 06:12:15;;;;;;;20.27;12.02;;;3.10;99.90;;;;;;5036718;28;20052;-63
2023/01/03 06:14:41;;;;;;;26.40;12.85;;;3.10;99.90;;;;;;5043361;28;20045;-63
2023/01/03 06:19:51;;;;;;;22.73;13.02;;;3.10;99.90;;;;;;5034413;28;20049;-63
2023/01/03 06:22:17;;;;;;;25.00;12.95;;;3.20;99.90;;;;;;5041602;28;20510;-63
2023/01/03 06:24:42;;;;;;;20.55;12.90;;;3.10;99.90;;;;;;5043591;28;20049;-63
2023/01/03 06:27:08;;;;;;;28.05;15.00;;;3.10;99.90;;;;;;5040686;28;20479;-63
2023/01/03 06:29:34;;;;;;;25.73;14.05;;;3.10;99.90;;;;;;5038658;28;20056;-63
2023/01/03 06:32:00;;;;;;;26.98;14.93;;;3.10;99.90;;;;;;5041811;28;20045;-63
2023/01/03 06:34:25;;;;;;;26.88;14.65;;;3.10;99.90;;;;;;5040696;28;20244;-63
2023/01/03 06:36:51;;;;;;;25.05;14.98;;;3.10;99.90;;;;;;5040508;28;20589;-63
2023/01/03 06:39:17;;;;;;;27.38;15.73;;;3.10;99.90;;;;;;5042226;28;20044;-63
2023/01/03 06:41:43;;;;;;;31.23;15.60;;;3.10;99.90;;;;;;5041189;28;20564;-63
2023/01/03 06:44:10;;;;;;;31.23;15.30;;;3.10;99.90;;;;;;5037342;28;20048;-63
2023/01/03 06:55:01;;;;;;;31.10;16.52;;;3.10;99.90;;;;;;5042302;28;20060;-63
2023/01/03 06:57:27;;;;;;;33.15;16.45;;;3.00;99.90;;;;;;5029046;28;20245;-63
2023/01/03 06:59:53;;;;;;;33.08;17.10;;;3.00;99.90;;;;;;5036049;28;20053;-63
2023/01/03 07:02:19;;;;;;;31.60;16.58;;;3.00;99.90;;;;;;5042741;28;20375;-62
2023/01/03 07:04:45;;;;;;;28.35;16.13;;;3.00;99.90;;;;;;5020516;28;20052;-63
2023/01/03 07:07:11;;;;;;;29.60;17.17;;;3.00;99.90;;;;;;5049175;28;20048;-63
2023/01/03 07:09:36;;;;;;;30.08;16.40;;;3.00;99.90;;;;;;5046325;28;20041;-63
2023/01/03 07:13:57;;;;;;;29.63;17.40;;;2.90;99.90;;;;;;5044263;28;20595;-63
2023/01/03 07:14:48;;;;;;;32.55;16.67;;;3.00;99.90;;;;;;5048766;28;20041;-63
2023/01/03 07:17:15;;;;;;;31.08;16.92;;;2.90;99.90;;;;;;5049391;28;20051;-63
2023/01/03 07:19:41;;;;;;;30.88;16.50;;;3.00;99.90;;;;;;5059456;28;20133;-63
2023/01/03 07:22:07;;;;;;;33.58;17.50;;;2.90;99.90;;;;;;5050373;28;20399;-63
2023/01/03 07:24:32;;;;;;;34.75;17.67;;;2.90;99.90;;;;;;5050483;28;20056;-63
2023/01/03 07:26:58;;;;;;;30.88;17.35;;;2.80;99.90;;;;;;5049995;28;20079;-62
2023/01/03 07:29:24;;;;;;;30.60;17.67;;;2.80;99.90;;;;;;5042545;28;20487;-63
2023/01/03 07:31:50;;;;;;;37.92;18.42;;;2.80;99.90;;;;;;5048443;28;20106;-62
2023/01/03 07:34:15;;;;;;;32.85;17.02;;;2.80;99.90;;;;;;5046589;28;20128;-62
2023/01/03 07:36:41;;;;;;;31.88;17.85;;;2.80;99.90;;;;;;5048904;28;20048;-63
2023/01/03 07:39:07;;;;;;;31.05;17.55;;;2.70;99.90;;;;;;5051932;28;20044;-63
2023/01/03 07:44:17;;;;;;;30.10;18.35;;;2.70;99.90;;;;;;5041767;28;20044;-63
2023/01/03 07:46:43;;;;;;;32.28;17.92;;;2.60;99.90;;;;;;5053446;28;20098;-63
2023/01/03 07:49:09;;;;;;;33.25;18.48;;;2.60;99.90;;;;;;5049166;28;20569;-63
2023/01/03 07:51:34;;;;;;;30.38;17.65;;;2.60;99.90;;;;;;5052563;28;20487;-63
2023/01/03 07:54:01;;;;;;;30.38;17.73;;;2.60;99.90;;;;;;5051710;28;20149;-63
2023/01/03 07:56:27;;;;;;;31.85;17.60;;;2.50;99.90;;;;;;5046543;28;20556;-63
2023/01/03 07:58:53;;;;;;;31.50;17.55;;;2.50;99.90;;;;;;5053057;28;20041;-63
2023/01/03 08:01:21;;;;;;;36.22;18.05;;;2.50;99.90;;;;;;5051214;28;20055;-63
2023/01/03 08:03:48;;;;;;;35.85;18.55;;;2.50;99.90;;;;;;5056709;28;20063;-63
2023/01/03 08:06:16;;;;;;;33.55;18.85;;;2.50;99.90;;;;;;5049620;28;20056;-63
2023/01/03 08:08:43;;;;;;;32.40;18.48;;;2.50;99.90;;;;;;5040779;28;20056;-63
2023/01/03 08:13:58;;;;;;;32.42;18.20;;;2.40;99.90;;;;;;5044372;28;20713;-63
2023/01/03 08:16:24;;;;;;;32.45;18.92;;;2.40;99.90;;;;;;5044744;28;20041;-63
2023/01/03 08:18:50;;;;;;;30.00;17.95;;;2.40;99.90;;;;;;5045333;28;20144;-63
2023/01/03 08:21:16;;;;;;;32.65;18.40;;;2.40;99.90;;;;;;5047017;28;20068;-63
2023/01/03 08:23:42;;;;;;;31.65;18.58;;;2.40;99.90;;;;;;5023657;28;20140;-63
2023/01/03 08:26:14;;;;;;;32.10;17.70;;;2.40;99.90;;;;;;5040045;28;20053;-63
2023/01/03 08:28:41;;;;;;;33.53;18.45;;;2.30;99.90;;;;;;5045957;28;20535;-63
2023/01/03 08:31:18;;;;;;;31.77;18.02;;;2.40;99.90;;;;;;5042019;28;20044;-62
2023/01/03 08:33:51;;;;;;;30.35;18.30;;;2.30;99.90;;;;;;5038900;28;20049;-62
2023/01/03 08:36:17;;;;;;;32.35;17.65;;;2.30;99.90;;;;;;5049126;28;20048;-62
2023/01/03 08:39:05;;;;;;;31.83;17.77;;;2.30;99.90;;;;;;5049472;28;20052;-62
2023/01/03 08:41:37;;;;;;;33.13;18.08;;;2.30;99.90;;;;;;5042385;28;20080;-63
2023/01/03 08:44:06;;;;;;;30.15;17.15;;;2.30;99.90;;;;;;5047101;28;20040;-64
2023/01/03 08:46:32;;;;;;;28.88;17.95;;;2.40;99.90;;;;;;5046725;28;20123;-63
2023/01/03 08:49:02;;;;;;;28.98;17.80;;;2.30;99.90;;;;;;5050648;28;20055;-62
2023/01/03 08:51:30;;;;;;;30.17;17.63;;;2.40;99.90;;;;;;5048485;28;20051;-63
2023/01/03 08:53:59;;;;;;;32.05;18.38;;;2.40;99.90;;;;;;5052340;28;20399;-63
2023/01/03 08:56:25;;;;;;;29.25;18.45;;;2.40;99.90;;;;;;5050254;28;20045;-63
2023/01/03 08:58:50;;;;;;;30.90;17.77;;;2.40;99.90;;;;;;5052580;28;20521;-63
2023/01/03 09:01:18;;;;;;;28.95;18.23;;;2.40;99.90;;;;;;5043327;28;20458;-63
2023/01/03 09:03:44;;;;;;;28.85;18.00;;;2.40;99.90;;;;;;5039651;28;20052;-63
2023/01/03 09:06:09;;;;;;;29.85;18.35;;;2.50;99.90;;;;;;5022925;28;20052;-63
2023/01/03 09:08:35;;;;;;;28.20;18.60;;;2.50;99.90;;;;;;5028221;28;20048;-63
2023/01/03 09:11:05;;;;;;;30.33;18.08;;;2.50;99.90;;;;;;5030439;28;20058;-63
2023/01/03 09:13:31;;;;;;;28.80;19.13;;;2.50;99.90;;;;;;5036654;28;20052;-63
2023/01/03 09:16:15;;;;;;;36.67;21.30;;;2.60;99.90;;;;;;5038755;28;20132;-63
2023/01/03 09:18:42;;;;;;;31.73;20.02;;;2.60;99.90;;;;;;5042854;28;20048;-63
2023/01/03 09:21:07;;;;;;;31.95;19.30;;;2.50;99.90;;;;;;5039393;28;20045;-63
2023/01/03 09:23:34;;;;;;;35.42;20.05;;;2.70;99.90;;;;;;5046174;28;20059;-63
2023/01/03 09:26:01;;;;;;;31.80;19.38;;;2.60;99.90;;;;;;5041558;28;20057;-63
2023/01/03 09:28:27;;;;;;;32.92;19.38;;;2.60;99.90;;;;;;5040945;28;20076;-63
2023/01/03 09:30:53;;;;;;;31.30;19.25;;;2.50;99.90;;;;;;5027815;28;20052;-63
2023/01/03 09:33:18;;;;;;;29.42;18.80;;;2.50;99.90;;;;;;5042050;28;20056;-63
2023/01/03 09:35:45;;;;;;;28.38;18.35;;;2.50;99.90;;;;;;5050028;28;20483;-63
2023/01/03 09:38:10;;;;;;;36.95;19.02;;;2.50;99.90;;;;;;5046333;28;20140;-63
2023/01/03 09:40:40;;;;;;;44.88;19.15;;;2.50;99.90;;;;;;5023891;28;20045;-63
2023/01/03 09:43:13;;;;;;;50.65;19.25;;;2.40;99.90;;;;;;5030277;28;20136;-63
2023/01/03 09:45:55;;;;;;;34.25;18.50;;;2.30;99.90;;;;;;5040701;28;20045;-63
2023/01/03 09:48:29;;;;;;;103.85;17.45;;;2.20;99.90;;;;;;5042950;28;20047;-63
2023/01/03 09:50:55;;;;;;;42.03;17.10;;;2.20;99.90;;;;;;5041429;28;20037;-62
2023/01/03 10:05:15;;;;;;;35.90;15.55;;;2.10;99.90;;;;;;5052112;28;20067;-63
2023/01/03 10:07:48;;;;;;;35.20;16.42;;;2.10;99.90;;;;;;5051348;28;20475;-63
2023/01/03 10:11:00;;;;;;;39.92;18.38;;;2.10;99.90;;;;;;5048536;28;20459;-63
2023/01/03 10:13:57;;;;;;;51.95;18.25;;;2.10;99.90;;;;;;5038226;28;20516;-63
2023/01/03 10:16:35;;;;;;;34.05;17.85;;;2.10;99.90;;;;;;5036605;28;20535;-63
2023/01/03 10:19:15;;;;;;;34.67;17.80;;;2.10;99.90;;;;;;5047015;28;20446;-63
2023/01/03 10:21:44;;;;;;;28.40;16.83;;;2.20;99.90;;;;;;5043664;28;20071;-63
2023/01/03 10:24:27;;;;;;;36.20;18.52;;;2.20;99.90;;;;;;5044402;28;20044;-63
2023/01/03 10:27:13;;;;;;;31.40;18.75;;;2.30;99.90;;;;;;5037913;28;20044;-63
2023/01/03 10:29:39;;;;;;;34.83;19.27;;;2.30;99.90;;;;;;5031582;28;20075;-63
2023/01/03 10:32:17;;;;;;;32.13;18.38;;;2.40;99.90;;;;;;5049285;28;20056;-63
2023/01/03 10:34:43;;;;;;;32.60;18.17;;;2.40;99.90;;;;;;5054336;28;20041;-64
2023/01/03 10:37:27;;;;;;;37.65;20.48;;;2.50;99.90;;;;;;5053203;28;20045;-64
2023/01/03 10:40:04;;;;;;;36.75;19.08;;;2.60;99.90;;;;;;5021716;28;20041;-63
2023/01/03 10:42:33;;;;;;;31.98;19.15;;;2.60;99.90;;;;;;5042443;28;20135;-63
2023/01/03 10:45:22;;;;;;;36.78;20.10;;;2.60;99.90;;;;;;5052859;28;20076;-63
2023/01/03 10:48:01;;;;;;;39.22;21.08;;;2.70;99.90;;;;;;5054160;28;20082;-64
2023/01/03 10:50:28;;;;;;;40.83;21.95;;;2.70;99.90;;;;;;5052912;28;20037;-64
2023/01/03 10:53:06;;;;;;;44.33;21.60;;;2.80;99.90;;;;;;5055167;28;20041;-63
2023/01/03 10:55:33;;;;;;;50.47;24.77;;;2.80;99.90;;;;;;5053370;28;20148;-63
2023/01/03 10:58:02;;;;;;;54.60;24.20;;;2.90;99.90;;;;;;5038825;28;20064;-64
2023/01/03 11:00:34;;;;;;;49.35;25.85;;;2.90;99.90;;;;;;5052821;28;20045;-63
2023/01/03 11:03:16;;;;;;;51.72;25.00;;;2.90;99.90;;;;;;5052652;28;20076;-64
2023/01/03 11:05:56;;;;;;;58.22;26.63;;;3.00;99.90;;;;;;5049582;28;20076;-63
2023/01/03 11:08:34;;;;;;;56.03;26.23;;;3.10;99.90;;;;;;5050086;28;20045;-63
2023/01/03 11:11:00;;;;;;;61.65;27.30;;;3.10;99.90;;;;;;5055766;28;20111;-63
2023/01/03 11:13:42;;;;;;;71.72;30.27;;;3.20;99.90;;;;;;5053609;28;20083;-63
2023/01/03 11:16:18;;;;;;;67.90;30.05;;;3.30;99.90;;;;;;5052766;28;21352;-63
2023/01/03 11:19:00;;;;;;;64.15;29.98;;;3.30;99.90;;;;;;5040855;28;20064;-63
2023/01/03 11:21:34;;;;;;;68.28;28.48;;;3.40;99.90;;;;;;5042875;28;20036;-64
2023/01/03 11:24:18;;;;;;;64.53;29.88;;;3.50;99.90;;;;;;5053613;28;20105;-63
2023/01/03 11:26:49;;;;;;;67.30;30.60;;;3.60;99.90;;;;;;5056326;28;20055;-63
2023/01/03 11:29:43;;;;;;;76.20;31.42;;;3.70;99.90;;;;;;5057873;28;20120;-64
2023/01/03 11:32:16;;;;;;;65.43;30.73;;;3.80;99.90;;;;;;5057528;28;20135;-64
2023/01/03 11:35:02;;;;;;;;;;;4.00;99.90;;;;;;5058012;28;20049;-63
2023/01/03 11:37:52;;;;;;;72.45;31.48;;;4.00;99.90;;;;;;5056475;28;19917;-64
2023/01/03 11:40:47;;;;;;;67.40;31.70;;;4.20;99.90;;;;;;5055465;28;20068;-63
2023/01/03 11:43:37;;;;;;;72.28;32.10;;;4.30;99.90;;;;;;5057829;28;20044;-63
2023/01/03 11:46:19;;;;;;;75.82;32.92;;;4.40;99.90;;;;;;5056522;28;20051;-63
2023/01/03 11:49:01;;;;;;;69.05;32.42;;;4.40;99.90;;;;;;5040203;28;20052;-63
2023/01/03 11:51:49;;;;;;;73.68;33.88;;;4.50;99.90;;;;;;5055873;28;20511;-63
2023/01/03 11:54:33;;;;;;;74.15;34.30;;;4.50;99.90;;;;;;5055924;28;20527;-63
2023/01/03 11:57:06;;;;;;;79.43;35.28;;;4.50;99.90;;;;;;5055376;28;20172;-63
2023/01/03 11:59:49;;;;;;;75.90;34.15;;;4.60;99.90;;;;;;5056749;28;20055;-64
2023/01/03 12:02:33;;;;;;;79.32;35.85;;;4.70;99.90;;;;;;5048388;28;20045;-63
2023/01/03 12:05:05;;;;;;;78.03;35.17;;;4.70;99.90;;;;;;5056614;28;20047;-64
2023/01/03 12:08:12;;;;;;;71.00;33.75;;;4.70;99.90;;;;;;5058715;28;20044;-64
2023/01/03 12:11:00;;;;;;;76.00;35.22;;;4.70;99.90;;;;;;5056025;28;20052;-64
2023/01/03 12:13:34;;;;;;;83.00;36.00;;;4.80;99.90;;;;;;5045866;28;20083;-64
2023/01/03 12:16:11;;;;;;;81.25;36.88;;;4.80;99.90;;;;;;5054813;28;20040;-64
2023/01/03 12:18:40;;;;;;;90.45;37.78;;;4.80;99.90;;;;;;5045866;28;20045;-64
2023/01/03 12:21:20;;;;;;;82.38;37.42;;;4.90;99.90;;;;;;5054204;28;20106;-64
2023/01/03 12:24:14;;;;;;;78.55;36.22;;;4.90;99.90;;;;;;5052862;28;20122;-63
2023/01/03 12:26:45;;;;;;;86.78;38.15;;;4.90;99.90;;;;;;5055297;28;20128;-64
2023/01/03 12:29:14;;;;;;;91.13;37.75;;;5.00;99.90;;;;;;5054033;28;20045;-63
2023/01/03 12:31:58;;;;;;;86.80;39.60;;;5.00;99.90;;;;;;5055421;28;20044;-64
2023/01/03 12:34:41;;;;;;;90.97;38.25;;;5.10;99.90;;;;;;5057406;28;20352;-64
2023/01/03 12:37:21;;;;;;;92.70;39.05;;;5.10;99.90;;;;;;5054266;28;20475;-63
2023/01/03 12:39:58;;;;;;;91.13;37.80;;;5.10;99.90;;;;;;5054945;28;20049;-64
2023/01/03 12:42:51;;;;;;;96.30;38.70;;;5.20;99.90;;;;;;5050534;28;20037;-63
2023/01/03 12:45:35;;;;;;;103.05;38.95;;;5.20;99.90;;;;;;5054266;28;20044;-64
2023/01/03 12:48:39;;;;;;;99.75;39.22;;;5.30;99.90;;;;;;5055260;28;20973;-64
2023/01/03 12:51:05;;;;;;;86.70;37.95;;;5.30;99.90;;;;;;5055900;28;20033;-64
2023/01/03 12:53:31;;;;;;;90.43;37.92;;;5.40;99.90;;;;;;5038466;28;20053;-64
2023/01/03 12:56:13;;;;;;;91.50;36.70;;;5.50;99.90;;;;;;5053712;28;20099;-64
2023/01/03 12:58:57;;;;;;;92.97;37.30;;;5.50;99.90;;;;;;5050474;28;20052;-64
2023/01/03 13:01:32;;;;;;;86.70;36.75;;;5.50;99.90;;;;;;5045044;28;20611;-64
2023/01/03 13:04:07;;;;;;;88.78;36.90;;;5.50;99.90;;;;;;5055820;28;20045;-64
2023/01/03 13:06:40;;;;;;;77.65;34.38;;;5.50;99.90;;;;;;5055683;28;20060;-63
2023/01/03 13:09:18;;;;;;;85.95;33.40;;;5.60;99.90;;;;;;5054103;28;20091;-64
2023/01/03 13:11:51;;;;;;;75.75;32.97;;;5.70;99.90;;;;;;5054282;28;20049;-64
2023/01/03 13:14:25;;;;;;;76.05;31.80;;;5.70;99.90;;;;;;5037059;28;20037;-64
2023/01/03 13:17:15;;;;;;;70.00;31.70;;;5.70;99.90;;;;;;5053110;28;20045;-64
2023/01/03 13:20:18;;;;;;;63.10;30.45;;;5.70;99.90;;;;;;5052486;28;20071;-63
2023/01/03 13:22:49;;;;;;;63.25;28.42;;;5.80;99.90;;;;;;5052751;28;20117;-64
2023/01/03 13:25:34;;;;;;;69.80;31.20;;;5.80;99.90;;;;;;5056693;28;20086;-64
2023/01/03 13:28:23;;;;;;;64.53;27.45;;;5.80;99.90;;;;;;5051657;28;20045;-63
2023/01/03 13:31:09;;;;;;;60.05;27.63;;;5.80;99.90;;;;;;5049766;28;20072;-64
2023/01/03 13:33:51;;;;;;;56.15;27.05;;;5.90;99.90;;;;;;5053121;28;20495;-63
2023/01/03 13:36:17;;;;;;;53.08;26.00;;;5.90;99.90;;;;;;5055060;28;20151;-63
2023/01/03 13:38:43;;;;;;;53.45;26.73;;;5.90;99.90;;;;;;5054474;28;20115;-64
2023/01/03 13:41:39;;;;;;;48.30;23.25;;;6.00;99.90;;;;;;5053446;28;20515;-64
2023/01/03 13:44:21;;;;;;;47.17;22.77;;;6.00;99.90;;;;;;5055343;28;20044;-64
2023/01/03 13:46:49;;;;;;;38.13;20.83;;;6.10;99.90;;;;;;5052849;28;20044;-64
2023/01/03 13:49:23;;;;;;;47.42;21.77;;;6.10;99.90;;;;;;5044338;28;20123;-63
2023/01/03 13:51:55;;;;;;;38.25;21.10;;;6.10;99.90;;;;;;5053372;28;20086;-64
2023/01/03 13:54:21;;;;;;;43.20;21.08;;;6.20;99.90;;;;;;5050614;28;20048;-64
2023/01/03 13:56:46;;;;;;;40.22;20.83;;;6.20;99.90;;;;;;5053749;28;20056;-64
2023/01/03 13:59:24;;;;;;;38.45;19.73;;;6.30;99.90;;;;;;5053210;28;20033;-64
2023/01/03 14:01:57;;;;;;;40.35;21.10;;;6.20;99.90;;;;;;5052912;28;20044;-64
2023/01/03 14:04:40;;;;;;;41.67;21.42;;;6.20;99.90;;;;;;5053177;28;20202;-64
2023/01/03 14:07:11;;;;;;;44.35;21.10;;;6.30;99.90;;;;;;5057897;28;20048;-64
2023/01/03 14:09:46;;;;;;;43.03;20.27;;;6.30;99.90;;;;;;5052979;28;20048;-64